sensor_id;sensor_type;location;lat;lon;timestamp;P1;durP1;ratioP1;P2;durP2;ratioP2
6850;SDS011;3464;42.728;23.296;2024-03-25T00:02:26;6.10;;;1.10;;
6850;SDS011;3464;42.728;23.296;2024-03-25T00:04:52;6.20;;;1.20;;
6850;SDS011;3464;42.728;23.296;2024-03-25T00:07:19;6.43;;;1.00;;
6850;SDS011;3464;42.728;23.296;2024-03-25T00:09:45;5.90;;;1.00;;
6850;SDS011;3464;42.728;23.296;2024-03-25T00:12:12;7.00;;;1.30;;
6850;SDS011;3464;42.728;23.296;2024-03-25T00:14:39;8.73;;;1.00;;
6850;SDS011;3464;42.728;23.296;2024-03-25T00:17:06;6.50;;;1.13;;
6850;SDS011;3464;42.728;23.296;2024-03-25T00:19:32;6.40;;;1.20;;
6850;SDS011;3464;42.728;23.296;2024-03-25T00:21:59;6.57;;;1.17;;
6850;SDS011;3464;42.728;23.296;2024-03-25T00:24:25;6.30;;;1.00;;
6850;SDS011;3464;42.728;23.296;2024-03-25T00:26:52;6.00;;;1.00;;
6850;SDS011;3464;42.728;23.296;2024-03-25T00:29:19;6.03;;;1.00;;
6850;SDS011;3464;42.728;23.296;2024-03-25T00:31:46;6.90;;;1.23;;
6850;SDS011;3464;42.728;23.296;2024-03-25T00:34:12;6.00;;;1.00;;
6850;SDS011;3464;42.728;23.296;2024-03-25T00:36:39;6.97;;;1.10;;
6850;SDS011;3464;42.728;23.296;2024-03-25T00:39:06;7.07;;;1.10;;
6850;SDS011;3464;42.728;23.296;2024-03-25T00:41:32;6.30;;;1.13;;
6850;SDS011;3464;42.728;23.296;2024-03-25T00:43:59;6.60;;;1.17;;
6850;SDS011;3464;42.728;23.296;2024-03-25T00:46:25;7.10;;;1.30;;
6850;SDS011;3464;42.728;23.296;2024-03-25T00:48:52;6.35;;;1.20;;
6850;SDS011;3464;42.728;23.296;2024-03-25T00:51:19;7.40;;;1.40;;
6850;SDS011;3464;42.728;23.296;2024-03-25T00:53:46;6.30;;;1.17;;
6850;SDS011;3464;42.728;23.296;2024-03-25T00:56:12;6.70;;;1.10;;
6850;SDS011;3464;42.728;23.296;2024-03-25T00:58:39;6.43;;;1.10;;
6850;SDS011;3464;42.728;23.296;2024-03-25T01:01:05;6.70;;;1.20;;
6850;SDS011;3464;42.728;23.296;2024-03-25T01:03:33;7.07;;;1.30;;
6850;SDS011;3464;42.728;23.296;2024-03-25T01:05:59;7.00;;;1.33;;
6850;SDS011;3464;42.728;23.296;2024-03-25T01:08:26;7.40;;;1.73;;
6850;SDS011;3464;42.728;23.296;2024-03-25T01:10:52;6.87;;;1.40;;
6850;SDS011;3464;42.728;23.296;2024-03-25T01:13:19;9.13;;;1.97;;
6850;SDS011;3464;42.728;23.296;2024-03-25T01:15:45;7.97;;;1.80;;
6850;SDS011;3464;42.728;23.296;2024-03-25T01:18:12;7.70;;;1.57;;
6850;SDS011;3464;42.728;23.296;2024-03-25T01:20:39;14.20;;;1.70;;
6850;SDS011;3464;42.728;23.296;2024-03-25T01:23:05;6.90;;;1.30;;
6850;SDS011;3464;42.728;23.296;2024-03-25T01:25:32;6.80;;;1.20;;
6850;SDS011;3464;42.728;23.296;2024-03-25T01:27:58;8.43;;;1.40;;
6850;SDS011;3464;42.728;23.296;2024-03-25T01:30:25;6.70;;;1.20;;
6850;SDS011;3464;42.728;23.296;2024-03-25T01:32:52;6.80;;;1.00;;
6850;SDS011;3464;42.728;23.296;2024-03-25T01:35:19;6.97;;;1.10;;
6850;SDS011;3464;42.728;23.296;2024-03-25T01:37:45;7.40;;;1.27;;
6850;SDS011;3464;42.728;23.296;2024-03-25T01:40:12;6.67;;;1.10;;
6850;SDS011;3464;42.728;23.296;2024-03-25T01:42:38;7.50;;;1.20;;
6850;SDS011;3464;42.728;23.296;2024-03-25T01:45:05;6.90;;;1.33;;
6850;SDS011;3464;42.728;23.296;2024-03-25T01:47:32;6.67;;;1.17;;
6850;SDS011;3464;42.728;23.296;2024-03-25T01:49:59;7.10;;;1.20;;
6850;SDS011;3464;42.728;23.296;2024-03-25T01:52:25;6.30;;;1.00;;
6850;SDS011;3464;42.728;23.296;2024-03-25T01:54:52;6.45;;;1.00;;
6850;SDS011;3464;42.728;23.296;2024-03-25T01:57:18;6.70;;;0.90;;
6850;SDS011;3464;42.728;23.296;2024-03-25T01:59:45;6.17;;;0.80;;
6850;SDS011;3464;42.728;23.296;2024-03-25T02:02:11;6.13;;;0.90;;
6850;SDS011;3464;42.728;23.296;2024-03-25T02:04:39;6.30;;;1.00;;
6850;SDS011;3464;42.728;23.296;2024-03-25T02:07:07;6.93;;;1.00;;
6850;SDS011;3464;42.728;23.296;2024-03-25T02:09:35;6.40;;;1.10;;
6850;SDS011;3464;42.728;23.296;2024-03-25T02:12:01;6.70;;;1.20;;
6850;SDS011;3464;42.728;23.296;2024-03-25T02:14:28;6.80;;;1.13;;
6850;SDS011;3464;42.728;23.296;2024-03-25T02:16:55;6.53;;;1.33;;
6850;SDS011;3464;42.728;23.296;2024-03-25T02:19:22;6.30;;;1.10;;
6850;SDS011;3464;42.728;23.296;2024-03-25T02:21:49;7.00;;;1.33;;
6850;SDS011;3464;42.728;23.296;2024-03-25T02:24:16;8.80;;;1.60;;
6850;SDS011;3464;42.728;23.296;2024-03-25T02:26:42;6.70;;;1.27;;
6850;SDS011;3464;42.728;23.296;2024-03-25T02:29:09;6.50;;;1.20;;
6850;SDS011;3464;42.728;23.296;2024-03-25T02:31:36;6.60;;;1.33;;
6850;SDS011;3464;42.728;23.296;2024-03-25T02:34:02;6.50;;;1.23;;
6850;SDS011;3464;42.728;23.296;2024-03-25T02:36:29;6.20;;;1.10;;
6850;SDS011;3464;42.728;23.296;2024-03-25T02:38:55;6.37;;;1.17;;
6850;SDS011;3464;42.728;23.296;2024-03-25T02:41:22;6.50;;;1.10;;
6850;SDS011;3464;42.728;23.296;2024-03-25T02:43:48;6.20;;;1.10;;
6850;SDS011;3464;42.728;23.296;2024-03-25T02:46:15;6.60;;;1.10;;
6850;SDS011;3464;42.728;23.296;2024-03-25T02:48:41;6.47;;;1.10;;
6850;SDS011;3464;42.728;23.296;2024-03-25T02:51:08;6.47;;;1.10;;
6850;SDS011;3464;42.728;23.296;2024-03-25T02:53:35;6.40;;;1.10;;
6850;SDS011;3464;42.728;23.296;2024-03-25T02:56:01;6.33;;;1.20;;
6850;SDS011;3464;42.728;23.296;2024-03-25T02:58:28;6.37;;;1.20;;
6850;SDS011;3464;42.728;23.296;2024-03-25T03:00:55;6.80;;;1.20;;
6850;SDS011;3464;42.728;23.296;2024-03-25T03:03:21;6.70;;;1.40;;
6850;SDS011;3464;42.728;23.296;2024-03-25T03:05:48;7.17;;;1.60;;
6850;SDS011;3464;42.728;23.296;2024-03-25T03:08:14;6.60;;;1.40;;
6850;SDS011;3464;42.728;23.296;2024-03-25T03:10:41;7.05;;;1.85;;
6850;SDS011;3464;42.728;23.296;2024-03-25T03:13:07;7.37;;;1.83;;
6850;SDS011;3464;42.728;23.296;2024-03-25T03:15:34;7.60;;;2.10;;
6850;SDS011;3464;42.728;23.296;2024-03-25T03:18:01;7.83;;;2.33;;
6850;SDS011;3464;42.728;23.296;2024-03-25T03:20:27;7.33;;;2.00;;
6850;SDS011;3464;42.728;23.296;2024-03-25T03:22:54;6.93;;;1.73;;
6850;SDS011;3464;42.728;23.296;2024-03-25T03:25:20;7.43;;;2.20;;
6850;SDS011;3464;42.728;23.296;2024-03-25T03:27:47;7.33;;;2.00;;
6850;SDS011;3464;42.728;23.296;2024-03-25T03:30:13;6.90;;;1.70;;
6850;SDS011;3464;42.728;23.296;2024-03-25T03:32:40;7.40;;;1.77;;
6850;SDS011;3464;42.728;23.296;2024-03-25T03:35:06;7.10;;;1.80;;
6850;SDS011;3464;42.728;23.296;2024-03-25T03:37:33;7.00;;;1.70;;
6850;SDS011;3464;42.728;23.296;2024-03-25T03:40:00;7.67;;;1.70;;
6850;SDS011;3464;42.728;23.296;2024-03-25T03:42:27;7.07;;;1.60;;
6850;SDS011;3464;42.728;23.296;2024-03-25T03:44:53;6.97;;;1.60;;
6850;SDS011;3464;42.728;23.296;2024-03-25T03:47:20;6.97;;;1.60;;
6850;SDS011;3464;42.728;23.296;2024-03-25T03:49:46;7.40;;;1.60;;
6850;SDS011;3464;42.728;23.296;2024-03-25T03:52:13;8.33;;;2.20;;
6850;SDS011;3464;42.728;23.296;2024-03-25T03:54:39;7.60;;;2.00;;
6850;SDS011;3464;42.728;23.296;2024-03-25T03:57:07;7.30;;;1.90;;
6850;SDS011;3464;42.728;23.296;2024-03-25T03:59:33;8.00;;;2.63;;
6850;SDS011;3464;42.728;23.296;2024-03-25T04:02:00;8.57;;;2.37;;
6850;SDS011;3464;42.728;23.296;2024-03-25T04:04:26;8.47;;;2.40;;
6850;SDS011;3464;42.728;23.296;2024-03-25T04:06:53;8.18;;;2.47;;
6850;SDS011;3464;42.728;23.296;2024-03-25T04:09:19;8.83;;;2.70;;
6850;SDS011;3464;42.728;23.296;2024-03-25T04:11:46;9.03;;;2.73;;
6850;SDS011;3464;42.728;23.296;2024-03-25T04:14:12;9.30;;;2.87;;
6850;SDS011;3464;42.728;23.296;2024-03-25T04:16:39;9.63;;;3.00;;
6850;SDS011;3464;42.728;23.296;2024-03-25T04:19:05;9.33;;;3.40;;
6850;SDS011;3464;42.728;23.296;2024-03-25T04:21:32;9.30;;;3.47;;
6850;SDS011;3464;42.728;23.296;2024-03-25T04:23:58;9.23;;;3.27;;
6850;SDS011;3464;42.728;23.296;2024-03-25T04:26:26;9.10;;;3.13;;
6850;SDS011;3464;42.728;23.296;2024-03-25T04:28:53;9.53;;;3.30;;
6850;SDS011;3464;42.728;23.296;2024-03-25T04:31:20;9.20;;;3.20;;
6850;SDS011;3464;42.728;23.296;2024-03-25T04:33:47;9.63;;;3.33;;
6850;SDS011;3464;42.728;23.296;2024-03-25T04:36:16;11.70;;;4.73;;
6850;SDS011;3464;42.728;23.296;2024-03-25T04:38:42;12.43;;;4.97;;
6850;SDS011;3464;42.728;23.296;2024-03-25T04:41:09;12.20;;;5.17;;
6850;SDS011;3464;42.728;23.296;2024-03-25T04:43:35;13.80;;;6.23;;
6850;SDS011;3464;42.728;23.296;2024-03-25T04:46:02;14.70;;;6.90;;
6850;SDS011;3464;42.728;23.296;2024-03-25T04:48:28;14.90;;;7.07;;
6850;SDS011;3464;42.728;23.296;2024-03-25T04:50:55;14.43;;;6.53;;
6850;SDS011;3464;42.728;23.296;2024-03-25T04:53:21;14.90;;;7.13;;
6850;SDS011;3464;42.728;23.296;2024-03-25T04:55:48;14.97;;;7.07;;
6850;SDS011;3464;42.728;23.296;2024-03-25T04:58:15;15.63;;;7.10;;
6850;SDS011;3464;42.728;23.296;2024-03-25T05:00:42;16.37;;;7.18;;
6850;SDS011;3464;42.728;23.296;2024-03-25T05:03:08;15.00;;;6.80;;
6850;SDS011;3464;42.728;23.296;2024-03-25T05:05:35;16.20;;;7.20;;
6850;SDS011;3464;42.728;23.296;2024-03-25T05:08:01;14.87;;;7.40;;
6850;SDS011;3464;42.728;23.296;2024-03-25T05:10:29;14.10;;;6.73;;
6850;SDS011;3464;42.728;23.296;2024-03-25T05:13:00;15.73;;;7.53;;
6850;SDS011;3464;42.728;23.296;2024-03-25T05:15:27;16.57;;;7.37;;
6850;SDS011;3464;42.728;23.296;2024-03-25T05:17:54;16.17;;;7.67;;
6850;SDS011;3464;42.728;23.296;2024-03-25T05:20:21;15.50;;;7.20;;
6850;SDS011;3464;42.728;23.296;2024-03-25T05:22:49;19.10;;;8.03;;
6850;SDS011;3464;42.728;23.296;2024-03-25T05:25:16;19.20;;;8.60;;
6850;SDS011;3464;42.728;23.296;2024-03-25T05:27:43;17.30;;;8.63;;
6850;SDS011;3464;42.728;23.296;2024-03-25T05:32:57;16.77;;;8.50;;
6850;SDS011;3464;42.728;23.296;2024-03-25T05:35:35;17.00;;;8.40;;
6850;SDS011;3464;42.728;23.296;2024-03-25T05:38:09;17.92;;;9.30;;
6850;SDS011;3464;42.728;23.296;2024-03-25T05:43:48;16.87;;;8.40;;
6850;SDS011;3464;42.728;23.296;2024-03-25T05:51:49;16.20;;;7.50;;
6850;SDS011;3464;42.728;23.296;2024-03-25T05:54:16;15.33;;;7.30;;
6850;SDS011;3464;42.728;23.296;2024-03-25T05:56:44;14.93;;;7.00;;
6850;SDS011;3464;42.728;23.296;2024-03-25T05:59:11;16.37;;;6.60;;
6850;SDS011;3464;42.728;23.296;2024-03-25T06:01:41;14.27;;;6.33;;
6850;SDS011;3464;42.728;23.296;2024-03-25T06:04:15;16.27;;;6.73;;
6850;SDS011;3464;42.728;23.296;2024-03-25T06:06:43;17.50;;;7.25;;
6850;SDS011;3464;42.728;23.296;2024-03-25T06:09:10;16.80;;;6.90;;
6850;SDS011;3464;42.728;23.296;2024-03-25T06:11:36;14.90;;;7.03;;
6850;SDS011;3464;42.728;23.296;2024-03-25T06:14:03;14.83;;;6.90;;
6850;SDS011;3464;42.728;23.296;2024-03-25T06:16:30;15.63;;;6.70;;
6850;SDS011;3464;42.728;23.296;2024-03-25T06:18:56;14.75;;;6.93;;
6850;SDS011;3464;42.728;23.296;2024-03-25T06:21:23;15.07;;;6.40;;
6850;SDS011;3464;42.728;23.296;2024-03-25T06:23:49;15.97;;;6.70;;
6850;SDS011;3464;42.728;23.296;2024-03-25T06:26:18;14.70;;;6.70;;
6850;SDS011;3464;42.728;23.296;2024-03-25T06:28:47;14.32;;;6.53;;
6850;SDS011;3464;42.728;23.296;2024-03-25T06:31:18;15.40;;;7.30;;
6850;SDS011;3464;42.728;23.296;2024-03-25T06:33:50;15.40;;;7.67;;
6850;SDS011;3464;42.728;23.296;2024-03-25T06:36:26;16.20;;;8.20;;
6850;SDS011;3464;42.728;23.296;2024-03-25T06:38:53;15.90;;;7.93;;
6850;SDS011;3464;42.728;23.296;2024-03-25T06:41:22;16.30;;;7.67;;
6850;SDS011;3464;42.728;23.296;2024-03-25T06:43:58;16.85;;;7.82;;
6850;SDS011;3464;42.728;23.296;2024-03-25T06:46:29;20.17;;;9.00;;
6850;SDS011;3464;42.728;23.296;2024-03-25T06:49:21;17.10;;;7.87;;
6850;SDS011;3464;42.728;23.296;2024-03-25T06:51:53;16.90;;;7.63;;
6850;SDS011;3464;42.728;23.296;2024-03-25T06:57:38;16.60;;;7.17;;
6850;SDS011;3464;42.728;23.296;2024-03-25T07:00:13;15.10;;;6.93;;
6850;SDS011;3464;42.728;23.296;2024-03-25T07:05:47;15.20;;;7.30;;
6850;SDS011;3464;42.728;23.296;2024-03-25T07:08:22;14.50;;;6.90;;
6850;SDS011;3464;42.728;23.296;2024-03-25T07:10:52;17.85;;;8.00;;
6850;SDS011;3464;42.728;23.296;2024-03-25T07:13:32;15.40;;;7.37;;
6850;SDS011;3464;42.728;23.296;2024-03-25T07:16:05;16.30;;;8.00;;
6850;SDS011;3464;42.728;23.296;2024-03-25T07:18:46;17.90;;;7.93;;
6850;SDS011;3464;42.728;23.296;2024-03-25T07:21:17;18.00;;;8.50;;
6850;SDS011;3464;42.728;23.296;2024-03-25T07:27:28;17.00;;;8.50;;
6850;SDS011;3464;42.728;23.296;2024-03-25T07:29:57;17.47;;;8.80;;
6850;SDS011;3464;42.728;23.296;2024-03-25T07:32:46;16.97;;;8.40;;
6850;SDS011;3464;42.728;23.296;2024-03-25T07:35:16;17.60;;;9.07;;
6850;SDS011;3464;42.728;23.296;2024-03-25T07:37:44;19.67;;;8.80;;
6850;SDS011;3464;42.728;23.296;2024-03-25T07:40:10;16.67;;;8.50;;
6850;SDS011;3464;42.728;23.296;2024-03-25T07:42:38;15.70;;;8.23;;
6850;SDS011;3464;42.728;23.296;2024-03-25T07:45:04;17.60;;;9.30;;
6850;SDS011;3464;42.728;23.296;2024-03-25T07:47:32;16.40;;;8.40;;
6850;SDS011;3464;42.728;23.296;2024-03-25T07:50:00;17.70;;;8.60;;
6850;SDS011;3464;42.728;23.296;2024-03-25T07:52:27;19.83;;;9.00;;
6850;SDS011;3464;42.728;23.296;2024-03-25T07:54:55;17.50;;;9.00;;
6850;SDS011;3464;42.728;23.296;2024-03-25T07:57:21;16.80;;;9.00;;
6850;SDS011;3464;42.728;23.296;2024-03-25T07:59:48;17.13;;;9.50;;
6850;SDS011;3464;42.728;23.296;2024-03-25T08:02:14;16.17;;;8.20;;
6850;SDS011;3464;42.728;23.296;2024-03-25T08:04:41;17.48;;;8.88;;
6850;SDS011;3464;42.728;23.296;2024-03-25T08:07:07;17.80;;;9.17;;
6850;SDS011;3464;42.728;23.296;2024-03-25T08:09:34;16.63;;;8.10;;
6850;SDS011;3464;42.728;23.296;2024-03-25T08:12:00;16.07;;;8.43;;
6850;SDS011;3464;42.728;23.296;2024-03-25T08:14:27;15.67;;;8.20;;
6850;SDS011;3464;42.728;23.296;2024-03-25T08:16:53;15.37;;;8.03;;
6850;SDS011;3464;42.728;23.296;2024-03-25T08:19:20;14.57;;;7.80;;
6850;SDS011;3464;42.728;23.296;2024-03-25T08:21:47;14.00;;;7.03;;
6850;SDS011;3464;42.728;23.296;2024-03-25T08:24:14;16.13;;;8.40;;
6850;SDS011;3464;42.728;23.296;2024-03-25T08:26:41;15.35;;;7.35;;
6850;SDS011;3464;42.728;23.296;2024-03-25T08:29:07;16.00;;;7.93;;
6850;SDS011;3464;42.728;23.296;2024-03-25T08:31:34;15.67;;;7.80;;
6850;SDS011;3464;42.728;23.296;2024-03-25T08:34:00;17.83;;;8.20;;
6850;SDS011;3464;42.728;23.296;2024-03-25T08:36:27;16.27;;;7.33;;
6850;SDS011;3464;42.728;23.296;2024-03-25T08:38:54;15.23;;;7.07;;
6850;SDS011;3464;42.728;23.296;2024-03-25T08:41:20;19.85;;;7.57;;
6850;SDS011;3464;42.728;23.296;2024-03-25T08:43:47;15.00;;;7.20;;
6850;SDS011;3464;42.728;23.296;2024-03-25T08:46:13;20.10;;;7.70;;
6850;SDS011;3464;42.728;23.296;2024-03-25T08:48:40;16.08;;;7.47;;
6850;SDS011;3464;42.728;23.296;2024-03-25T08:51:06;21.50;;;8.50;;
6850;SDS011;3464;42.728;23.296;2024-03-25T08:53:33;15.20;;;6.60;;
6850;SDS011;3464;42.728;23.296;2024-03-25T08:55:59;15.47;;;6.70;;
6850;SDS011;3464;42.728;23.296;2024-03-25T08:58:26;16.50;;;7.30;;
6850;SDS011;3464;42.728;23.296;2024-03-25T09:00:53;16.10;;;7.57;;
6850;SDS011;3464;42.728;23.296;2024-03-25T09:03:19;18.47;;;7.23;;
6850;SDS011;3464;42.728;23.296;2024-03-25T09:05:46;19.27;;;7.10;;
6850;SDS011;3464;42.728;23.296;2024-03-25T09:08:12;16.90;;;7.30;;
6850;SDS011;3464;42.728;23.296;2024-03-25T09:10:42;17.70;;;8.30;;
6850;SDS011;3464;42.728;23.296;2024-03-25T09:13:12;16.87;;;7.40;;
6850;SDS011;3464;42.728;23.296;2024-03-25T09:15:38;16.73;;;8.20;;
6850;SDS011;3464;42.728;23.296;2024-03-25T09:18:05;16.50;;;6.90;;
6850;SDS011;3464;42.728;23.296;2024-03-25T09:20:32;17.73;;;8.07;;
6850;SDS011;3464;42.728;23.296;2024-03-25T09:22:58;15.83;;;7.13;;
6850;SDS011;3464;42.728;23.296;2024-03-25T09:25:25;16.20;;;7.67;;
6850;SDS011;3464;42.728;23.296;2024-03-25T09:27:52;17.77;;;7.40;;
6850;SDS011;3464;42.728;23.296;2024-03-25T09:30:18;14.50;;;6.63;;
6850;SDS011;3464;42.728;23.296;2024-03-25T09:32:46;17.47;;;7.20;;
6850;SDS011;3464;42.728;23.296;2024-03-25T09:35:12;16.20;;;7.50;;
6850;SDS011;3464;42.728;23.296;2024-03-25T09:37:40;13.27;;;5.67;;
6850;SDS011;3464;42.728;23.296;2024-03-25T09:40:07;15.23;;;6.77;;
6850;SDS011;3464;42.728;23.296;2024-03-25T09:45:21;15.63;;;6.90;;
6850;SDS011;3464;42.728;23.296;2024-03-25T09:47:48;19.70;;;7.40;;
6850;SDS011;3464;42.728;23.296;2024-03-25T09:50:16;16.50;;;7.00;;
6850;SDS011;3464;42.728;23.296;2024-03-25T09:52:46;13.53;;;6.10;;
6850;SDS011;3464;42.728;23.296;2024-03-25T09:55:12;13.13;;;6.17;;
6850;SDS011;3464;42.728;23.296;2024-03-25T09:57:42;13.62;;;5.95;;
6850;SDS011;3464;42.728;23.296;2024-03-25T10:00:13;15.00;;;6.00;;
6850;SDS011;3464;42.728;23.296;2024-03-25T10:02:43;16.37;;;5.72;;
6850;SDS011;3464;42.728;23.296;2024-03-25T10:05:11;16.17;;;5.77;;
6850;SDS011;3464;42.728;23.296;2024-03-25T10:07:39;14.37;;;6.27;;
6850;SDS011;3464;42.728;23.296;2024-03-25T10:10:07;22.33;;;7.00;;
6850;SDS011;3464;42.728;23.296;2024-03-25T10:12:35;15.13;;;6.20;;
6850;SDS011;3464;42.728;23.296;2024-03-25T10:15:01;15.17;;;6.40;;
6850;SDS011;3464;42.728;23.296;2024-03-25T10:17:30;15.93;;;6.53;;
6850;SDS011;3464;42.728;23.296;2024-03-25T10:19:56;15.77;;;6.60;;
6850;SDS011;3464;42.728;23.296;2024-03-25T10:22:26;13.17;;;5.10;;
6850;SDS011;3464;42.728;23.296;2024-03-25T10:24:56;15.97;;;5.50;;
6850;SDS011;3464;42.728;23.296;2024-03-25T10:27:23;12.60;;;5.40;;
6850;SDS011;3464;42.728;23.296;2024-03-25T10:29:53;12.67;;;5.20;;
6850;SDS011;3464;42.728;23.296;2024-03-25T10:32:21;12.30;;;4.60;;
6850;SDS011;3464;42.728;23.296;2024-03-25T10:34:47;13.53;;;4.83;;
6850;SDS011;3464;42.728;23.296;2024-03-25T10:37:14;11.80;;;4.80;;
6850;SDS011;3464;42.728;23.296;2024-03-25T10:39:47;11.50;;;4.20;;
6850;SDS011;3464;42.728;23.296;2024-03-25T10:42:13;13.80;;;5.00;;
6850;SDS011;3464;42.728;23.296;2024-03-25T10:44:41;14.00;;;4.72;;
6850;SDS011;3464;42.728;23.296;2024-03-25T10:47:08;15.47;;;5.10;;
6850;SDS011;3464;42.728;23.296;2024-03-25T10:49:38;12.80;;;4.53;;
6850;SDS011;3464;42.728;23.296;2024-03-25T10:52:03;12.20;;;5.00;;
6850;SDS011;3464;42.728;23.296;2024-03-25T10:54:30;10.73;;;3.90;;
6850;SDS011;3464;42.728;23.296;2024-03-25T10:56:58;12.50;;;4.80;;
6850;SDS011;3464;42.728;23.296;2024-03-25T10:59:25;14.73;;;5.40;;
6850;SDS011;3464;42.728;23.296;2024-03-25T11:01:51;11.23;;;4.50;;
6850;SDS011;3464;42.728;23.296;2024-03-25T11:04:17;13.40;;;4.60;;
6850;SDS011;3464;42.728;23.296;2024-03-25T11:06:44;15.13;;;4.95;;
6850;SDS011;3464;42.728;23.296;2024-03-25T11:09:10;14.57;;;4.67;;
6850;SDS011;3464;42.728;23.296;2024-03-25T11:11:37;12.67;;;4.53;;
6850;SDS011;3464;42.728;23.296;2024-03-25T11:14:04;12.80;;;4.83;;
6850;SDS011;3464;42.728;23.296;2024-03-25T11:16:32;13.60;;;4.87;;
6850;SDS011;3464;42.728;23.296;2024-03-25T11:19:12;12.77;;;4.37;;
6850;SDS011;3464;42.728;23.296;2024-03-25T11:21:41;12.30;;;4.20;;
6850;SDS011;3464;42.728;23.296;2024-03-25T11:24:08;12.50;;;4.50;;
6850;SDS011;3464;42.728;23.296;2024-03-25T11:26:40;11.37;;;3.33;;
6850;SDS011;3464;42.728;23.296;2024-03-25T11:29:06;10.83;;;3.60;;
6850;SDS011;3464;42.728;23.296;2024-03-25T11:31:34;13.70;;;4.43;;
6850;SDS011;3464;42.728;23.296;2024-03-25T11:34:04;10.93;;;4.23;;
6850;SDS011;3464;42.728;23.296;2024-03-25T11:36:33;13.70;;;4.50;;
6850;SDS011;3464;42.728;23.296;2024-03-25T11:39:01;13.43;;;4.57;;
6850;SDS011;3464;42.728;23.296;2024-03-25T11:41:29;11.83;;;4.57;;
6850;SDS011;3464;42.728;23.296;2024-03-25T11:44:05;13.03;;;4.40;;
6850;SDS011;3464;42.728;23.296;2024-03-25T11:46:39;14.80;;;5.13;;
6850;SDS011;3464;42.728;23.296;2024-03-25T11:49:14;18.70;;;4.90;;
6850;SDS011;3464;42.728;23.296;2024-03-25T11:51:45;10.70;;;3.87;;
6850;SDS011;3464;42.728;23.296;2024-03-25T11:54:15;12.83;;;3.90;;
6850;SDS011;3464;42.728;23.296;2024-03-25T11:56:52;13.93;;;4.57;;
6850;SDS011;3464;42.728;23.296;2024-03-25T11:59:19;12.70;;;4.50;;
6850;SDS011;3464;42.728;23.296;2024-03-25T12:01:47;13.93;;;4.00;;
6850;SDS011;3464;42.728;23.296;2024-03-25T12:04:17;10.90;;;3.90;;
6850;SDS011;3464;42.728;23.296;2024-03-25T12:06:44;11.00;;;4.00;;
6850;SDS011;3464;42.728;23.296;2024-03-25T12:09:10;10.70;;;3.73;;
6850;SDS011;3464;42.728;23.296;2024-03-25T12:11:43;12.53;;;3.87;;
6850;SDS011;3464;42.728;23.296;2024-03-25T12:14:09;13.40;;;3.93;;
6850;SDS011;3464;42.728;23.296;2024-03-25T12:16:37;11.65;;;4.45;;
6850;SDS011;3464;42.728;23.296;2024-03-25T12:19:05;14.60;;;4.20;;
6850;SDS011;3464;42.728;23.296;2024-03-25T12:21:31;11.03;;;3.90;;
6850;SDS011;3464;42.728;23.296;2024-03-25T12:24:00;11.10;;;3.97;;
6850;SDS011;3464;42.728;23.296;2024-03-25T12:26:31;13.47;;;4.37;;
6850;SDS011;3464;42.728;23.296;2024-03-25T12:29:00;10.57;;;3.83;;
6850;SDS011;3464;42.728;23.296;2024-03-25T12:31:28;10.77;;;3.90;;
6850;SDS011;3464;42.728;23.296;2024-03-25T12:51:11;11.38;;;3.80;;
6850;SDS011;3464;42.728;23.296;2024-03-25T12:53:37;15.70;;;3.90;;
6850;SDS011;3464;42.728;23.296;2024-03-25T12:56:08;11.10;;;3.13;;
6850;SDS011;3464;42.728;23.296;2024-03-25T12:58:40;13.00;;;3.17;;
6850;SDS011;3464;42.728;23.296;2024-03-25T13:01:08;10.33;;;3.23;;
6850;SDS011;3464;42.728;23.296;2024-03-25T13:03:35;13.33;;;3.80;;
6850;SDS011;3464;42.728;23.296;2024-03-25T13:06:05;11.40;;;4.17;;
6850;SDS011;3464;42.728;23.296;2024-03-25T13:08:32;10.20;;;3.90;;
6850;SDS011;3464;42.728;23.296;2024-03-25T13:11:02;10.60;;;4.00;;
6850;SDS011;3464;42.728;23.296;2024-03-25T13:13:34;14.70;;;4.90;;
6850;SDS011;3464;42.728;23.296;2024-03-25T13:16:02;10.87;;;4.10;;
6850;SDS011;3464;42.728;23.296;2024-03-25T13:18:29;11.50;;;4.20;;
6850;SDS011;3464;42.728;23.296;2024-03-25T13:20:55;13.13;;;3.67;;
6850;SDS011;3464;42.728;23.296;2024-03-25T13:23:22;12.00;;;4.60;;
6850;SDS011;3464;42.728;23.296;2024-03-25T13:25:48;11.03;;;4.00;;
6850;SDS011;3464;42.728;23.296;2024-03-25T13:28:15;11.80;;;4.33;;
6850;SDS011;3464;42.728;23.296;2024-03-25T13:30:41;11.98;;;3.87;;
6850;SDS011;3464;42.728;23.296;2024-03-25T13:33:09;20.33;;;3.87;;
6850;SDS011;3464;42.728;23.296;2024-03-25T13:35:35;10.30;;;3.30;;
6850;SDS011;3464;42.728;23.296;2024-03-25T13:38:02;11.90;;;3.70;;
6850;SDS011;3464;42.728;23.296;2024-03-25T13:40:29;10.60;;;3.23;;
6850;SDS011;3464;42.728;23.296;2024-03-25T13:42:56;10.40;;;3.33;;
6850;SDS011;3464;42.728;23.296;2024-03-25T13:45:23;12.27;;;3.37;;
6850;SDS011;3464;42.728;23.296;2024-03-25T13:47:49;10.60;;;3.10;;
6850;SDS011;3464;42.728;23.296;2024-03-25T13:50:16;10.57;;;3.17;;
6850;SDS011;3464;42.728;23.296;2024-03-25T13:52:43;11.02;;;3.35;;
6850;SDS011;3464;42.728;23.296;2024-03-25T13:55:09;9.43;;;2.20;;
6850;SDS011;3464;42.728;23.296;2024-03-25T13:57:36;8.90;;;2.03;;
6850;SDS011;3464;42.728;23.296;2024-03-25T14:00:02;10.03;;;2.00;;
6850;SDS011;3464;42.728;23.296;2024-03-25T14:02:29;9.73;;;2.20;;
6850;SDS011;3464;42.728;23.296;2024-03-25T14:04:56;9.80;;;2.27;;
6850;SDS011;3464;42.728;23.296;2024-03-25T14:07:22;9.20;;;2.13;;
6850;SDS011;3464;42.728;23.296;2024-03-25T14:09:49;8.67;;;1.90;;
6850;SDS011;3464;42.728;23.296;2024-03-25T14:12:16;8.60;;;2.17;;
6850;SDS011;3464;42.728;23.296;2024-03-25T14:14:43;9.87;;;2.43;;
6850;SDS011;3464;42.728;23.296;2024-03-25T14:17:09;8.50;;;1.93;;
6850;SDS011;3464;42.728;23.296;2024-03-25T14:19:36;9.20;;;2.53;;
6850;SDS011;3464;42.728;23.296;2024-03-25T14:22:03;9.20;;;2.40;;
6850;SDS011;3464;42.728;23.296;2024-03-25T14:24:30;11.43;;;2.30;;
6850;SDS011;3464;42.728;23.296;2024-03-25T14:26:56;9.53;;;2.30;;
6850;SDS011;3464;42.728;23.296;2024-03-25T14:29:23;9.23;;;2.37;;
6850;SDS011;3464;42.728;23.296;2024-03-25T14:31:50;12.50;;;2.87;;
6850;SDS011;3464;42.728;23.296;2024-03-25T14:34:17;9.70;;;2.50;;
6850;SDS011;3464;42.728;23.296;2024-03-25T14:36:44;10.35;;;2.40;;
6850;SDS011;3464;42.728;23.296;2024-03-25T14:39:11;8.97;;;2.20;;
6850;SDS011;3464;42.728;23.296;2024-03-25T14:41:38;14.17;;;3.90;;
6850;SDS011;3464;42.728;23.296;2024-03-25T14:44:05;13.70;;;2.43;;
6850;SDS011;3464;42.728;23.296;2024-03-25T14:46:31;11.67;;;2.27;;
6850;SDS011;3464;42.728;23.296;2024-03-25T14:48:58;8.77;;;1.90;;
6850;SDS011;3464;42.728;23.296;2024-03-25T14:51:24;8.97;;;2.40;;
6850;SDS011;3464;42.728;23.296;2024-03-25T14:53:51;11.23;;;2.57;;
6850;SDS011;3464;42.728;23.296;2024-03-25T14:56:18;12.43;;;3.00;;
6850;SDS011;3464;42.728;23.296;2024-03-25T14:58:44;10.77;;;3.20;;
6850;SDS011;3464;42.728;23.296;2024-03-25T15:01:11;11.13;;;2.80;;
6850;SDS011;3464;42.728;23.296;2024-03-25T15:03:37;9.20;;;2.80;;
6850;SDS011;3464;42.728;23.296;2024-03-25T15:06:04;11.50;;;3.20;;
6850;SDS011;3464;42.728;23.296;2024-03-25T15:08:31;10.00;;;3.22;;
6850;SDS011;3464;42.728;23.296;2024-03-25T15:10:58;11.30;;;3.47;;
6850;SDS011;3464;42.728;23.296;2024-03-25T15:13:24;10.93;;;3.13;;
6850;SDS011;3464;42.728;23.296;2024-03-25T15:15:51;11.50;;;3.00;;
6850;SDS011;3464;42.728;23.296;2024-03-25T15:18:18;10.90;;;3.20;;
6850;SDS011;3464;42.728;23.296;2024-03-25T15:20:44;11.63;;;3.73;;
6850;SDS011;3464;42.728;23.296;2024-03-25T15:23:11;12.20;;;3.50;;
6850;SDS011;3464;42.728;23.296;2024-03-25T15:25:37;10.80;;;3.30;;
6850;SDS011;3464;42.728;23.296;2024-03-25T15:28:04;11.00;;;2.83;;
6850;SDS011;3464;42.728;23.296;2024-03-25T15:30:30;11.00;;;2.93;;
6850;SDS011;3464;42.728;23.296;2024-03-25T15:32:57;11.43;;;3.50;;
6850;SDS011;3464;42.728;23.296;2024-03-25T15:35:24;12.37;;;3.08;;
6850;SDS011;3464;42.728;23.296;2024-03-25T15:37:50;10.90;;;2.90;;